Time;durP1;ratioP1;P1;durP2;ratioP2;P2;SDS_P1;SDS_P2;PMS_P1;PMS_P2;Temp;Humidity;BMP_temperature;BMP_pressure;BME280_temperature;BME280_humidity;BME280_pressure;Samples;Min_cycle;Max_cycle;Signal;HPM_P1;HPM_P2
2023/01/08 00:01:40;;;;;;;1.10;1.10;;;15.20;94.60;;;;;;5092840;28;20200;-61
2023/01/08 00:04:28;;;;;;;1.42;1.33;;;15.20;94.70;;;;;;5094187;28;20325;-62
2023/01/08 00:07:16;;;;;;;1.30;1.20;;;15.30;94.70;;;;;;5094816;28;20283;-66
2023/01/08 00:10:04;;;;;;;1.40;1.30;;;15.10;94.60;;;;;;5092478;28;20349;-66
2023/01/08 00:12:54;;;;;;;1.98;1.88;;;15.20;94.70;;;;;;5094113;28;20270;-66
2023/01/08 00:15:42;;;;;;;2.08;1.77;;;15.00;94.40;;;;;;5093363;28;20279;-64
2023/01/08 00:18:32;;;;;;;1.50;1.40;;;15.00;94.20;;;;;;5094103;28;20240;-63
2023/01/08 00:21:20;;;;;;;1.48;1.38;;;15.20;94.40;;;;;;5092718;28;20279;-65
2023/01/08 00:24:08;;;;;;;1.60;1.50;;;15.10;94.30;;;;;;5094044;28;20207;-63
2023/01/08 00:26:56;;;;;;;1.60;1.50;;;15.10;94.50;;;;;;5093989;28;20231;-65
2023/01/08 00:29:44;;;;;;;1.50;1.40;;;15.30;94.70;;;;;;5092805;28;20552;-65
2023/01/08 00:32:32;;;;;;;1.40;1.30;;;15.10;94.60;;;;;;5094173;28;20266;-65
2023/01/08 00:35:21;;;;;;;1.67;1.58;;;15.20;94.50;;;;;;5093330;28;20574;-65
2023/01/08 00:38:10;;;;;;;1.42;1.33;;;15.10;94.30;;;;;;5088321;28;20601;-64
2023/01/08 00:40:58;;;;;;;1.70;1.55;;;15.20;94.50;;;;;;5093443;28;20714;-66
2023/01/08 00:43:46;;;;;;;1.40;1.30;;;15.20;94.20;;;;;;5101236;22;20726;-59
2023/01/08 00:46:34;;;;;;;1.27;1.17;;;14.90;94.50;;;;;;5073447;28;20215;-62
2023/01/08 00:49:22;;;;;;;1.50;1.40;;;15.10;94.50;;;;;;5073848;28;20251;-62
2023/01/08 00:52:12;;;;;;;1.30;1.20;;;15.30;99.90;;;;;;5073292;28;20346;-63
2023/01/08 00:55:00;;;;;;;1.50;1.30;;;15.30;94.70;;;;;;5074157;28;20260;-62
2023/01/08 00:57:48;;;;;;;1.23;1.10;;;15.20;94.50;;;;;;5073873;28;20258;-62
2023/01/08 01:00:36;;;;;;;1.70;1.60;;;15.10;94.50;;;;;;5074462;28;20295;-62
2023/01/08 01:03:24;;;;;;;1.40;1.30;;;15.20;94.50;;;;;;5072446;28;20221;-62
2023/01/08 01:06:13;;;;;;;2.90;1.30;;;15.20;94.60;;;;;;5073983;28;20196;-60
2023/01/08 01:09:03;;;;;;;1.33;1.23;;;15.30;94.60;;;;;;5071827;28;20197;-62
2023/01/08 01:11:51;;;;;;;1.88;1.77;;;15.00;94.50;;;;;;5073963;28;20288;-62
2023/01/08 01:14:39;;;;;;;1.23;1.10;;;15.20;94.50;;;;;;5073293;28;20253;-60
2023/01/08 01:17:27;;;;;;;1.15;1.10;;;15.10;94.50;;;;;;5073075;28;20337;-60
2023/01/08 01:20:16;;;;;;;1.20;1.10;;;15.20;94.50;;;;;;5072398;28;20575;-62
2023/01/08 01:23:04;;;;;;;2.28;1.33;;;15.10;94.40;;;;;;5072890;28;20603;-62
2023/01/08 01:25:54;;;;;;;1.70;1.60;;;15.10;94.50;;;;;;5072832;28;20249;-62
2023/01/08 01:28:42;;;;;;;2.33;1.30;;;15.10;94.40;;;;;;5072890;28;20737;-62
2023/01/08 01:31:31;;;;;;;1.97;1.47;;;15.10;94.50;;;;;;5072586;28;20200;-62
2023/01/08 01:34:19;;;;;;;1.73;1.63;;;15.10;94.40;;;;;;5072414;28;20305;-62
2023/01/08 01:37:08;;;;;;;1.77;1.33;;;15.10;94.40;;;;;;5072033;28;20197;-63
2023/01/08 01:39:56;;;;;;;1.48;1.38;;;15.10;94.40;;;;;;5072395;28;20201;-62
2023/01/08 01:42:46;;;;;;;1.38;1.27;;;15.10;94.50;;;;;;5072980;28;20224;-63
2023/01/08 01:45:34;;;;;;;1.88;1.58;;;15.00;94.50;;;;;;5072144;28;20286;-63
2023/01/08 01:48:22;;;;;;;1.58;1.42;;;15.10;94.20;;;;;;5072367;28;20207;-63
2023/01/08 01:51:10;;;;;;;1.90;1.50;;;15.10;94.20;;;;;;5070977;28;20612;-63
2023/01/08 01:54:00;;;;;;;1.77;1.67;;;15.00;94.00;;;;;;5071305;28;20302;-63
2023/01/08 01:56:49;;;;;;;1.77;1.67;;;15.20;94.10;;;;;;5071213;28;20211;-63
2023/01/08 01:59:38;;;;;;;2.38;1.33;;;15.20;94.20;;;;;;5072228;28;20277;-60
2023/01/08 02:02:27;;;;;;;1.40;1.30;;;15.00;94.40;;;;;;5073600;28;20252;-60
2023/01/08 02:05:15;;;;;;;1.60;1.50;;;15.00;94.40;;;;;;5073452;28;20201;-60
2023/01/08 02:08:10;;;;;;;2.10;1.80;;;15.00;94.20;;;;;;5072324;28;20205;-60
2023/01/08 02:11:06;;;;;;;1.87;1.77;;;15.10;94.00;;;;;;5073557;28;20197;-60
2023/01/08 02:13:59;;;;;;;1.67;1.58;;;15.10;94.00;;;;;;5071760;28;20748;-60
2023/01/08 02:16:54;;;;;;;1.53;1.43;;;15.10;94.20;;;;;;5071905;28;20327;-60
2023/01/08 02:19:45;;;;;;;1.50;1.40;;;14.90;94.30;;;;;;5086967;28;20236;-61
2023/01/08 02:22:44;;;;;;;1.57;1.47;;;15.10;94.40;;;;;;5086987;28;20291;-61
2023/01/08 02:25:55;;;;;;;1.42;1.30;;;15.10;94.30;;;;;;5074395;28;20275;-60
2023/01/08 02:28:46;;;;;;;1.93;1.67;;;15.10;94.30;;;;;;5075770;28;20250;-60
2023/01/08 02:31:38;;;;;;;1.67;1.57;;;15.10;94.20;;;;;;5072707;28;20361;-59
2023/01/08 02:34:26;;;;;;;1.20;1.15;;;15.10;94.20;;;;;;5072601;28;20220;-63
2023/01/08 02:37:14;;;;;;;1.60;1.47;;;15.00;94.20;;;;;;5070806;28;20274;-63
2023/01/08 02:40:11;;;;;;;1.60;1.50;;;15.00;94.30;;;;;;5069601;28;20232;-64
2023/01/08 02:43:10;;;;;;;1.50;1.40;;;15.10;94.30;;;;;;5060054;28;20713;-63
2023/01/08 02:46:01;;;;;;;1.60;1.50;;;15.00;94.20;;;;;;5051349;28;20193;-63
2023/01/08 02:48:54;;;;;;;1.63;1.52;;;15.70;94.50;;;;;;5051945;28;20204;-62
2023/01/08 02:51:48;;;;;;;1.97;1.80;;;15.00;94.10;;;;;;5051493;28;20201;-62
2023/01/08 02:54:36;;;;;;;2.63;1.73;;;15.00;94.00;;;;;;5052475;28;20247;-60
2023/01/08 02:57:25;;;;;;;2.10;1.85;;;15.00;94.10;;;;;;5052436;28;20232;-60
2023/01/08 03:00:15;;;;;;;1.50;1.40;;;15.00;94.00;;;;;;5051931;28;20286;-63
2023/01/08 03:03:09;;;;;;;1.50;1.40;;;15.00;94.10;;;;;;5051100;28;20213;-62
2023/01/08 03:06:02;;;;;;;1.83;1.67;;;14.90;94.10;;;;;;5055749;28;20255;-62
2023/01/08 03:08:53;;;;;;;1.57;1.47;;;14.90;94.20;;;;;;5055921;28;20255;-63
2023/01/08 03:11:47;;;;;;;1.35;1.25;;;15.00;94.40;;;;;;5055443;28;20288;-63
2023/01/08 03:14:41;;;;;;;1.67;1.57;;;15.00;94.30;;;;;;5056210;28;20201;-60
2023/01/08 03:17:32;;;;;;;1.70;1.60;;;15.00;94.30;;;;;;5056313;28;20224;-60
2023/01/08 03:20:23;;;;;;;1.65;1.55;;;15.00;94.10;;;;;;5055986;28;20251;-60
2023/01/08 03:23:13;;;;;;;1.73;1.57;;;15.00;93.90;;;;;;5056457;28;20274;-60
2023/01/08 03:26:03;;;;;;;1.87;1.67;;;15.00;93.90;;;;;;5055787;28;20189;-60
2023/01/08 03:28:53;;;;;;;1.53;1.43;;;15.00;94.10;;;;;;5056165;28;20578;-60
2023/01/08 03:31:44;;;;;;;1.70;1.60;;;15.00;94.10;;;;;;5055814;28;20194;-60
2023/01/08 03:34:37;;;;;;;1.85;1.67;;;15.00;93.90;;;;;;5055721;28;20270;-60
2023/01/08 03:37:29;;;;;;;1.67;1.57;;;15.00;94.00;;;;;;5054450;28;20198;-63
2023/01/08 03:40:21;;;;;;;1.73;1.63;;;15.00;94.00;;;;;;5054561;28;20201;-62
2023/01/08 03:43:09;;;;;;;1.90;1.80;;;15.00;94.00;;;;;;5055467;28;20236;-62
2023/01/08 03:46:01;;;;;;;1.93;1.70;;;15.00;93.90;;;;;;5054981;28;20304;-62
2023/01/08 03:48:50;;;;;;;1.70;1.60;;;15.00;93.80;;;;;;5054633;28;20205;-62
2023/01/08 03:51:41;;;;;;;1.65;1.55;;;15.00;94.00;;;;;;5055931;28;20201;-60
2023/01/08 03:54:32;;;;;;;1.97;1.87;;;15.00;94.10;;;;;;5055673;28;20843;-60
2023/01/08 03:57:20;;;;;;;1.65;1.55;;;15.00;93.90;;;;;;5055370;28;20282;-60
2023/01/08 04:00:10;;;;;;;2.42;1.73;;;15.00;93.90;;;;;;5054883;28;20755;-63
2023/01/08 04:02:58;;;;;;;1.60;1.50;;;15.00;94.00;;;;;;5055559;28;20279;-60
2023/01/08 04:05:46;;;;;;;2.20;1.50;;;15.00;93.90;;;;;;5055616;28;20296;-60
2023/01/08 04:08:36;;;;;;;1.50;1.40;;;15.00;94.00;;;;;;5054540;28;20233;-62
2023/01/08 04:11:24;;;;;;;2.07;1.87;;;15.00;94.00;;;;;;5053488;28;20291;-63
2023/01/08 04:14:12;;;;;;;1.57;1.47;;;15.00;94.00;;;;;;5054313;28;20252;-62
2023/01/08 04:17:00;;;;;;;1.90;1.63;;;15.00;94.00;;;;;;5055384;28;20307;-60
2023/01/08 04:19:48;;;;;;;1.70;1.60;;;14.90;93.90;;;;;;5055244;28;20229;-60
2023/01/08 04:22:36;;;;;;;2.07;1.67;;;15.00;94.00;;;;;;5054979;28;20225;-60
2023/01/08 04:25:26;;;;;;;2.15;1.45;;;15.00;93.90;;;;;;5054361;28;20205;-62
2023/01/08 04:28:14;;;;;;;1.80;1.70;;;14.90;93.70;;;;;;5054183;28;20752;-60
2023/01/08 04:31:06;;;;;;;1.75;1.48;;;14.90;93.70;;;;;;5054836;28;20204;-59
2023/01/08 04:33:54;;;;;;;1.63;1.53;;;14.90;93.90;;;;;;5054968;28;20220;-62
2023/01/08 04:36:42;;;;;;;1.70;1.60;;;14.90;93.80;;;;;;5054044;28;20209;-62
2023/01/08 04:39:30;;;;;;;1.55;1.20;;;14.90;93.90;;;;;;5054395;28;20344;-60
2023/01/08 04:42:19;;;;;;;1.60;1.50;;;14.90;99.90;;;;;;5073206;28;20228;-60
2023/01/08 04:45:09;;;;;;;1.10;1.10;;;14.90;94.30;;;;;;5074324;28;20262;-60
2023/01/08 04:47:57;;;;;;;1.57;1.47;;;14.90;94.20;;;;;;5074382;28;20234;-60
2023/01/08 04:50:45;;;;;;;1.70;1.60;;;14.90;94.00;;;;;;5073770;28;20259;-62
2023/01/08 04:53:36;;;;;;;1.63;1.53;;;14.90;94.00;;;;;;5073687;28;20252;-62
2023/01/08 04:56:24;;;;;;;1.87;1.77;;;14.90;93.80;;;;;;5073545;28;20270;-62
2023/01/08 04:59:13;;;;;;;2.67;1.83;;;14.90;93.80;;;;;;5073487;28;20207;-62
2023/01/08 05:02:02;;;;;;;1.65;1.55;;;14.90;93.90;;;;;;5073599;28;20204;-62
2023/01/08 05:04:50;;;;;;;1.63;1.53;;;14.90;93.80;;;;;;5074000;28;20212;-62
2023/01/08 05:07:38;;;;;;;2.23;1.87;;;14.90;94.00;;;;;;5073175;28;20275;-62
2023/01/08 05:10:26;;;;;;;1.50;1.40;;;14.90;93.80;;;;;;5072986;28;20196;-62
2023/01/08 05:13:14;;;;;;;1.70;1.60;;;14.90;93.80;;;;;;5073448;28;20266;-62
2023/01/08 05:16:04;;;;;;;2.10;1.90;;;14.90;93.70;;;;;;5073085;28;20262;-62
2023/01/08 05:18:53;;;;;;;1.77;1.60;;;15.00;93.80;;;;;;5072136;28;20196;-62
2023/01/08 05:21:41;;;;;;;1.83;1.60;;;14.90;93.90;;;;;;5073689;28;20239;-62
2023/01/08 05:24:29;;;;;;;1.53;1.43;;;14.90;93.90;;;;;;5073434;28;20715;-62
2023/01/08 05:27:17;;;;;;;1.30;1.23;;;15.00;94.00;;;;;;5072579;28;20258;-62
2023/01/08 05:30:07;;;;;;;1.47;1.27;;;15.00;94.10;;;;;;5073013;28;20673;-62
2023/01/08 05:32:56;;;;;;;1.70;1.60;;;15.20;94.10;;;;;;5072838;28;20251;-62
2023/01/08 05:35:44;;;;;;;1.70;1.60;;;15.00;94.10;;;;;;5073231;28;20247;-62
2023/01/08 05:38:32;;;;;;;1.60;1.50;;;15.00;94.10;;;;;;5073252;28;20279;-62
2023/01/08 05:41:20;;;;;;;1.70;1.60;;;15.00;94.00;;;;;;5072351;28;20330;-62
2023/01/08 05:44:09;;;;;;;2.00;1.50;;;15.00;94.00;;;;;;5072613;28;20727;-62
2023/01/08 05:46:58;;;;;;;1.90;1.63;;;15.00;94.00;;;;;;5073458;28;20681;-62
2023/01/08 05:49:47;;;;;;;1.80;1.70;;;15.00;94.00;;;;;;5072099;28;20617;-62
2023/01/08 05:52:35;;;;;;;1.50;1.40;;;15.00;94.00;;;;;;5073169;28;20275;-63
2023/01/08 05:55:23;;;;;;;1.63;1.50;;;15.00;94.00;;;;;;5072239;28;20579;-63
2023/01/08 05:58:11;;;;;;;2.90;1.63;;;15.00;94.00;;;;;;5066942;28;20225;-63
2023/01/08 06:01:04;;;;;;;1.55;1.45;;;15.00;94.00;;;;;;5076930;28;20256;-63
2023/01/08 06:03:54;;;;;;;1.40;1.30;;;15.00;94.00;;;;;;5076869;28;20781;-63
2023/01/08 06:06:44;;;;;;;2.03;1.83;;;15.10;94.00;;;;;;5074191;28;20260;-62
2023/01/08 06:09:32;;;;;;;1.77;1.67;;;14.90;94.00;;;;;;5073157;28;20270;-63
2023/01/08 06:12:20;;;;;;;1.30;1.23;;;14.90;99.90;;;;;;5072452;28;20204;-63
2023/01/08 06:15:11;;;;;;;1.30;1.20;;;15.10;94.00;;;;;;5071539;28;20204;-62
2023/01/08 06:18:02;;;;;;;1.45;1.35;;;14.90;94.00;;;;;;5072470;28;20216;-62
2023/01/08 06:20:50;;;;;;;1.60;1.50;;;15.10;94.10;;;;;;5072508;28;20199;-62
2023/01/08 06:23:39;;;;;;;1.30;1.20;;;14.90;94.10;;;;;;5072494;28;20299;-63
2023/01/08 06:26:27;;;;;;;3.50;2.00;;;15.00;94.20;;;;;;5072781;28;20200;-62
2023/01/08 06:29:15;;;;;;;2.00;1.50;;;15.00;94.20;;;;;;5072406;28;20204;-62
2023/01/08 06:32:04;;;;;;;1.37;1.27;;;15.00;94.20;;;;;;5072638;28;20689;-62
2023/01/08 06:34:52;;;;;;;1.47;1.37;;;15.00;94.20;;;;;;5072074;28;20224;-63
2023/01/08 06:37:40;;;;;;;1.33;1.23;;;15.90;94.50;;;;;;5071841;28;20220;-63
2023/01/08 06:40:29;;;;;;;2.70;1.67;;;15.10;94.20;;;;;;5072550;28;20200;-60
2023/01/08 06:43:20;;;;;;;1.55;1.30;;;15.20;94.20;;;;;;5099800;23;20239;-66
2023/01/08 06:46:11;;;;;;;1.50;1.40;;;15.10;94.10;;;;;;5090702;28;20211;-65
2023/01/08 06:48:59;;;;;;;1.88;1.77;;;15.20;94.00;;;;;;5084473;28;20573;-64
2023/01/08 06:51:47;;;;;;;1.85;1.70;;;15.20;93.90;;;;;;5090791;28;20224;-66
2023/01/08 06:54:35;;;;;;;1.90;1.50;;;15.30;93.90;;;;;;5090589;28;20260;-63
2023/01/08 06:57:24;;;;;;;1.80;1.70;;;15.20;93.80;;;;;;5090633;28;20372;-61
2023/01/08 07:00:14;;;;;;;1.40;1.30;;;15.40;93.90;;;;;;5090431;28;20234;-65
2023/01/08 07:03:02;;;;;;;1.90;1.70;;;15.30;93.50;;;;;;5085216;28;20216;-62
2023/01/08 07:05:50;;;;;;;2.00;1.90;;;15.40;93.50;;;;;;5083338;28;20199;-64
2023/01/08 07:08:38;;;;;;;1.45;1.35;;;15.40;93.60;;;;;;5091219;28;20203;-62
2023/01/08 07:11:26;;;;;;;1.60;1.50;;;15.40;93.60;;;;;;5091516;28;20330;-66
2023/01/08 07:14:15;;;;;;;1.60;1.50;;;15.40;93.70;;;;;;5091451;28;20302;-65
2023/01/08 07:17:03;;;;;;;1.63;1.50;;;15.40;93.70;;;;;;5084974;28;20247;-65
2023/01/08 07:19:51;;;;;;;2.25;1.75;;;15.40;93.70;;;;;;5083024;28;20313;-66
2023/01/08 07:22:40;;;;;;;1.70;1.60;;;15.40;99.90;;;;;;5090314;28;20753;-65
2023/01/08 07:25:28;;;;;;;2.20;1.70;;;15.30;93.60;;;;;;5090312;28;20284;-64
2023/01/08 07:28:16;;;;;;;1.60;1.50;;;15.30;93.60;;;;;;5090436;28;20275;-64
2023/01/08 07:31:06;;;;;;;1.87;1.67;;;15.30;93.60;;;;;;5084701;28;20279;-65
2023/01/08 07:33:54;;;;;;;1.20;1.10;;;15.30;93.60;;;;;;5083179;28;20220;-66
2023/01/08 07:36:42;;;;;;;1.77;1.67;;;15.30;93.60;;;;;;5090403;28;20227;-63
2023/01/08 07:39:30;;;;;;;1.43;1.33;;;15.30;93.60;;;;;;5090071;28;20712;-66
2023/01/08 07:42:18;;;;;;;1.80;1.70;;;15.40;93.70;;;;;;5090352;28;20200;-64
2023/01/08 07:45:07;;;;;;;2.08;1.73;;;15.40;93.70;;;;;;5085163;28;20243;-63
2023/01/08 07:47:58;;;;;;;1.60;1.48;;;15.20;93.60;;;;;;5090413;28;20245;-66
2023/01/08 07:50:46;;;;;;;1.77;1.67;;;15.10;93.60;;;;;;5091517;28;20338;-63
2023/01/08 07:53:35;;;;;;;2.03;1.47;;;15.10;93.60;;;;;;5094649;28;20291;-65
2023/01/08 07:56:24;;;;;;;1.65;1.55;;;15.20;93.60;;;;;;5094675;28;20326;-64
2023/01/08 07:59:12;;;;;;;1.60;1.50;;;15.20;93.70;;;;;;5093796;28;20259;-64
2023/01/08 08:02:00;;;;;;;1.80;1.70;;;15.20;93.70;;;;;;5087879;28;20203;-65
2023/01/08 08:04:50;;;;;;;1.80;1.70;;;15.20;94.00;;;;;;5085882;28;20735;-64
2023/01/08 08:07:38;;;;;;;1.70;1.60;;;15.10;93.70;;;;;;5094294;28;20234;-65
2023/01/08 08:10:26;;;;;;;1.45;1.35;;;15.30;93.90;;;;;;5093808;28;20344;-64
2023/01/08 08:13:14;;;;;;;3.23;1.50;;;15.10;93.80;;;;;;5094242;28;20692;-66
2023/01/08 08:16:03;;;;;;;2.03;1.83;;;15.00;93.80;;;;;;5087849;28;20687;-64
2023/01/08 08:18:51;;;;;;;2.30;1.60;;;15.00;93.80;;;;;;5093761;28;20585;-64
2023/01/08 08:21:40;;;;;;;1.60;1.50;;;15.20;93.90;;;;;;5093440;28;20614;-65
2023/01/08 08:24:28;;;;;;;1.90;1.67;;;15.10;93.90;;;;;;5094104;28;20220;-65
2023/01/08 08:27:16;;;;;;;1.90;1.80;;;15.20;93.90;;;;;;5094014;28;20208;-66
2023/01/08 08:30:05;;;;;;;2.17;2.03;;;15.20;93.90;;;;;;5087444;28;20231;-64
2023/01/08 08:32:54;;;;;;;1.70;1.60;;;15.00;93.90;;;;;;5085664;28;20719;-66
2023/01/08 08:35:49;;;;;;;1.40;1.30;;;15.10;93.80;;;;;;5093150;28;20226;-65
2023/01/08 08:38:38;;;;;;;1.60;1.50;;;15.00;93.80;;;;;;5093478;28;20215;-65
2023/01/08 08:41:27;;;;;;;1.50;1.40;;;15.00;93.90;;;;;;5093050;28;20213;-65
2023/01/08 08:44:15;;;;;;;1.60;1.50;;;15.00;93.90;;;;;;5092905;28;20227;-65
2023/01/08 08:47:06;;;;;;;1.43;1.33;;;15.00;93.90;;;;;;5087718;28;20240;-66
2023/01/08 08:49:54;;;;;;;1.57;1.47;;;15.00;94.00;;;;;;5093346;28;20300;-64
2023/01/08 08:52:44;;;;;;;1.60;1.50;;;15.10;99.90;;;;;;5093479;28;20279;-66
2023/01/08 08:55:34;;;;;;;2.00;1.83;;;15.00;94.00;;;;;;5092954;28;20200;-65
2023/01/08 08:58:22;;;;;;;1.77;1.67;;;15.10;94.00;;;;;;5092744;28;20274;-66
2023/01/08 09:01:10;;;;;;;1.60;1.50;;;15.00;93.90;;;;;;5091940;28;20227;-66
2023/01/08 09:03:59;;;;;;;1.20;1.20;;;15.00;93.90;;;;;;5086428;28;20227;-66
2023/01/08 09:06:47;;;;;;;2.80;1.73;;;15.00;93.90;;;;;;5093820;28;20204;-63
2023/01/08 09:09:35;;;;;;;1.85;1.50;;;15.10;94.00;;;;;;5092170;28;20244;-65
2023/01/08 09:12:24;;;;;;;1.40;1.30;;;15.10;94.00;;;;;;5092443;28;20238;-66
2023/01/08 09:15:12;;;;;;;1.65;1.55;;;15.00;94.00;;;;;;5092479;28;20204;-66
2023/01/08 09:18:00;;;;;;;1.70;1.60;;;15.10;94.00;;;;;;5092831;28;20281;-66
2023/01/08 09:20:48;;;;;;;1.63;1.52;;;15.20;94.00;;;;;;5092104;28;20196;-67
2023/01/08 09:23:37;;;;;;;1.50;1.40;;;14.90;93.90;;;;;;5092329;28;20334;-64
2023/01/08 09:26:27;;;;;;;1.80;1.70;;;15.00;94.00;;;;;;5092650;28;20283;-66
2023/01/08 09:29:16;;;;;;;2.00;1.88;;;15.10;94.00;;;;;;5091995;28;20684;-66
2023/01/08 09:32:06;;;;;;;1.83;1.70;;;14.90;93.90;;;;;;5086676;28;20279;-64
2023/01/08 09:34:54;;;;;;;1.60;1.50;;;15.00;94.00;;;;;;5084773;28;20656;-65
2023/01/08 09:37:42;;;;;;;1.58;1.48;;;14.90;93.90;;;;;;5091958;28;20204;-64
2023/01/08 09:40:34;;;;;;;2.17;1.97;;;14.90;93.90;;;;;;5091640;28;20712;-66
2023/01/08 09:43:25;;;;;;;1.70;1.60;;;15.00;94.00;;;;;;5092422;28;20281;-66
2023/01/08 09:46:18;;;;;;;1.40;1.30;;;15.00;94.00;;;;;;5092041;28;20196;-66
2023/01/08 09:49:11;;;;;;;2.10;1.90;;;15.00;94.00;;;;;;5086834;28;20270;-62
2023/01/08 09:51:59;;;;;;;2.00;1.80;;;14.90;94.00;;;;;;5092325;28;20576;-66
2023/01/08 09:54:47;;;;;;;1.87;1.77;;;14.90;94.00;;;;;;5091839;28;20306;-66
2023/01/08 09:57:35;;;;;;;2.00;1.50;;;15.10;94.10;;;;;;5091870;28;20281;-66
2023/01/08 10:00:28;;;;;;;1.50;1.40;;;15.00;94.10;;;;;;5091890;28;20258;-66
2023/01/08 10:03:17;;;;;;;1.70;1.60;;;15.00;94.00;;;;;;5091375;28;20700;-65
2023/01/08 10:06:09;;;;;;;1.83;1.70;;;15.00;94.10;;;;;;5085972;28;20228;-66
2023/01/08 10:08:58;;;;;;;1.70;1.60;;;14.90;94.10;;;;;;5091386;28;20192;-65
2023/01/08 10:11:48;;;;;;;1.90;1.70;;;14.90;94.10;;;;;;5091332;28;20303;-63
2023/01/08 10:14:46;;;;;;;1.77;1.65;;;14.90;94.00;;;;;;5091730;28;20231;-65
2023/01/08 10:17:38;;;;;;;1.50;1.40;;;14.90;94.00;;;;;;5091354;28;20287;-62
2023/01/08 10:20:28;;;;;;;1.63;1.27;;;15.00;94.00;;;;;;5091434;28;20258;-64
2023/01/08 10:23:19;;;;;;;1.10;1.10;;;15.00;94.30;;;;;;5091712;28;20696;-66
2023/01/08 10:26:07;;;;;;;1.90;1.40;;;15.00;94.00;;;;;;5085955;28;20435;-64
2023/01/08 10:29:09;;;;;;;1.50;1.40;;;15.10;94.00;;;;;;5084036;28;20340;-65
2023/01/08 10:31:58;;;;;;;2.47;1.83;;;14.80;93.90;;;;;;5084793;28;20705;-65
2023/01/08 10:34:49;;;;;;;1.50;1.40;;;15.00;94.00;;;;;;5091116;28;20298;-64
2023/01/08 10:37:41;;;;;;;1.60;1.50;;;15.10;94.00;;;;;;5091568;28;20280;-65
2023/01/08 10:40:36;;;;;;;1.23;1.13;;;15.30;94.10;;;;;;5090560;28;20223;-63
2023/01/08 10:43:27;;;;;;;1.37;1.30;;;15.00;94.00;;;;;;5090612;28;20314;-65
2023/01/08 10:46:21;;;;;;;1.35;1.25;;;15.10;94.00;;;;;;5091095;28;20740;-66
2023/01/08 10:49:17;;;;;;;1.15;1.00;;;15.10;94.00;;;;;;5085838;28;20241;-64
2023/01/08 10:52:06;;;;;;;1.50;1.40;;;15.00;94.00;;;;;;5085464;28;20211;-63
2023/01/08 10:54:55;;;;;;;1.63;1.52;;;15.00;94.30;;;;;;5076522;28;20292;-66
2023/01/08 10:57:54;;;;;;;1.90;1.80;;;15.10;94.00;;;;;;5090846;28;20713;-66
2023/01/08 11:00:42;;;;;;;1.60;1.50;;;15.10;94.00;;;;;;5090385;28;20216;-65
2023/01/08 11:03:32;;;;;;;1.52;1.42;;;14.90;94.00;;;;;;5090615;28;20305;-63
2023/01/08 11:06:23;;;;;;;1.30;1.20;;;15.10;94.10;;;;;;5091149;28;20245;-66
2023/01/08 11:09:21;;;;;;;1.88;1.70;;;15.00;94.10;;;;;;5091026;28;20691;-64
2023/01/08 11:12:31;;;;;;;1.43;1.33;;;15.00;94.10;;;;;;5090226;28;20199;-67
2023/01/08 11:15:31;;;;;;;2.63;2.27;;;14.90;94.20;;;;;;5090787;28;20241;-65
2023/01/08 11:18:21;;;;;;;1.60;1.50;;;15.00;94.30;;;;;;5091687;28;20326;-64
2023/01/08 11:21:19;;;;;;;1.92;1.77;;;15.10;94.30;;;;;;5090190;28;20756;-65
2023/01/08 11:24:17;;;;;;;1.47;1.33;;;15.10;94.40;;;;;;5085292;28;20277;-66
2023/01/08 11:27:11;;;;;;;2.17;1.88;;;15.00;94.20;;;;;;5089157;28;20203;-65
2023/01/08 11:30:05;;;;;;;1.70;1.50;;;15.00;94.10;;;;;;5087983;28;20279;-64
2023/01/08 11:33:00;;;;;;;1.77;1.67;;;15.00;94.10;;;;;;5095175;28;20273;-62
2023/01/08 11:35:52;;;;;;;2.53;2.33;;;15.00;94.20;;;;;;5094329;28;20283;-63
2023/01/08 11:38:40;;;;;;;1.50;1.40;;;15.00;94.20;;;;;;5094384;28;20249;-66
2023/01/08 11:42:00;;;;;;;2.28;1.77;;;15.20;94.30;;;;;;5094725;28;20334;-65
2023/01/08 11:45:03;;;;;;;1.50;1.40;;;15.10;94.20;;;;;;5093883;28;20353;-64
2023/01/08 11:48:17;;;;;;;1.85;1.70;;;15.20;94.10;;;;;;5086904;28;20211;-63
2023/01/08 11:51:36;;;;;;;1.88;1.77;;;15.10;94.00;;;;;;5088312;28;20752;-65
2023/01/08 11:54:41;;;;;;;1.30;1.20;;;15.10;94.00;;;;;;5093356;28;20272;-63
2023/01/08 11:57:41;;;;;;;2.35;1.23;;;15.10;94.00;;;;;;5094424;28;20282;-65
2023/01/08 12:00:52;;;;;;;1.50;1.40;;;15.10;94.00;;;;;;5093519;28;20724;-65
2023/01/08 12:03:46;;;;;;;1.80;1.63;;;15.10;94.10;;;;;;5094225;28;20319;-64
2023/01/08 12:06:43;;;;;;;2.55;1.67;;;15.20;94.10;;;;;;5094063;28;20520;-63
2023/01/08 12:09:38;;;;;;;1.38;1.27;;;15.20;94.10;;;;;;5094860;28;20278;-64
2023/01/08 12:12:44;;;;;;;1.70;1.55;;;15.20;99.90;;;;;;5093750;28;20200;-64
2023/01/08 12:15:47;;;;;;;3.47;1.53;;;15.30;94.10;;;;;;5093737;28;20275;-65
2023/01/08 12:18:47;;;;;;;2.47;1.70;;;15.10;94.00;;;;;;5094201;28;20685;-62
2023/01/08 12:21:53;;;;;;;1.50;1.40;;;15.20;94.10;;;;;;5093383;28;20361;-65
2023/01/08 12:25:01;;;;;;;1.17;1.17;;;15.20;94.10;;;;;;5093617;28;20251;-62
2023/01/08 12:28:01;;;;;;;1.52;1.42;;;15.00;94.00;;;;;;5085615;28;20266;-64
2023/01/08 12:31:06;;;;;;;1.93;1.83;;;15.00;94.00;;;;;;5085349;28;20257;-65
2023/01/08 12:34:00;;;;;;;1.50;1.37;;;15.10;94.10;;;;;;5086086;28;20281;-62
2023/01/08 12:36:51;;;;;;;1.40;1.30;;;15.10;94.10;;;;;;5093588;28;20200;-63
2023/01/08 12:39:47;;;;;;;1.40;1.30;;;15.10;94.10;;;;;;5092737;28;20215;-63
2023/01/08 12:42:40;;;;;;;1.95;1.50;;;15.30;99.90;;;;;;5093476;28;20281;-63
2023/01/08 12:45:38;;;;;;;1.45;1.35;;;15.10;94.20;;;;;;5093703;28;20200;-63
2023/01/08 12:48:29;;;;;;;1.60;1.50;;;15.10;94.30;;;;;;5092467;28;20208;-67
2023/01/08 12:51:25;;;;;;;2.23;1.67;;;15.10;94.20;;;;;;5092820;28;20228;-65
2023/01/08 12:54:20;;;;;;;1.30;1.30;;;15.20;94.30;;;;;;5093355;28;20312;-65
2023/01/08 12:57:15;;;;;;;2.17;1.50;;;15.20;94.20;;;;;;5093407;28;20320;-61
2023/01/08 13:00:10;;;;;;;1.47;1.37;;;15.20;94.20;;;;;;5086670;28;20640;-61
2023/01/08 13:03:01;;;;;;;2.20;1.70;;;15.10;94.30;;;;;;5086321;28;20296;-62
2023/01/08 13:05:50;;;;;;;1.77;1.67;;;15.10;94.20;;;;;;5084982;28;20199;-63
2023/01/08 13:08:41;;;;;;;1.73;1.63;;;15.00;94.10;;;;;;5092784;28;20225;-64
2023/01/08 13:11:32;;;;;;;1.40;1.30;;;15.10;94.20;;;;;;5092141;28;20284;-64
2023/01/08 13:14:21;;;;;;;1.88;1.73;;;15.20;94.20;;;;;;5091646;28;20708;-64
2023/01/08 13:17:17;;;;;;;1.67;1.40;;;15.00;94.10;;;;;;5087558;28;20261;-62
2023/01/08 13:20:07;;;;;;;4.22;2.05;;;15.00;94.10;;;;;;5091436;28;20688;-65
2023/01/08 13:22:58;;;;;;;1.77;1.58;;;15.20;94.50;;;;;;5092204;28;20330;-61
2023/01/08 13:25:54;;;;;;;1.40;1.30;;;15.20;94.20;;;;;;5092792;28;20664;-64
2023/01/08 13:28:44;;;;;;;1.57;1.47;;;15.20;94.20;;;;;;5092656;28;20283;-64
2023/01/08 13:31:39;;;;;;;1.60;1.50;;;15.00;94.10;;;;;;5092553;28;20203;-63
2023/01/08 13:34:37;;;;;;;2.33;1.35;;;15.30;94.20;;;;;;5092475;28;20223;-63
2023/01/08 13:37:25;;;;;;;2.33;1.43;;;15.20;94.20;;;;;;5091606;28;20213;-64
2023/01/08 13:40:55;;;;;;;1.70;1.27;;;15.30;94.30;;;;;;5091818;28;20228;-61
2023/01/08 13:43:45;;;;;;;1.63;1.52;;;15.10;94.10;;;;;;4989966;28;20254;-63
2023/01/08 13:46:37;;;;;;;1.70;1.33;;;15.10;94.20;;;;;;5091885;28;20195;-63
2023/01/08 13:49:28;;;;;;;1.70;1.60;;;15.20;94.20;;;;;;5091248;28;20238;-64
2023/01/08 13:52:33;;;;;;;1.90;1.67;;;15.20;94.20;;;;;;5091528;28;20634;-65
2023/01/08 13:55:29;;;;;;;1.57;1.47;;;15.10;94.20;;;;;;5091896;28;20257;-63
2023/01/08 13:58:23;;;;;;;1.40;1.30;;;15.10;94.20;;;;;;5091784;28;20346;-62
2023/01/08 14:01:12;;;;;;;1.77;1.50;;;15.10;94.20;;;;;;5091122;28;20662;-65
2023/01/08 14:04:00;;;;;;;2.08;1.40;;;15.00;94.20;;;;;;5085447;28;20220;-65
2023/01/08 14:06:48;;;;;;;1.60;1.50;;;15.20;94.30;;;;;;5091527;28;20203;-64
2023/01/08 14:09:36;;;;;;;1.77;1.67;;;15.10;94.30;;;;;;5091264;28;20713;-63
2023/01/08 14:12:25;;;;;;;1.60;1.50;;;15.10;94.30;;;;;;5092278;28;20232;-62
2023/01/08 14:15:22;;;;;;;1.70;1.60;;;15.00;94.30;;;;;;5091618;28;20199;-64
2023/01/08 14:18:12;;;;;;;1.60;1.40;;;15.10;94.30;;;;;;5090489;28;20203;-62
2023/01/08 14:21:00;;;;;;;1.60;1.50;;;15.20;94.40;;;;;;5090862;28;20222;-64
2023/01/08 14:23:50;;;;;;;1.70;1.60;;;15.00;94.30;;;;;;5091230;28;20643;-64
2023/01/08 14:26:38;;;;;;;1.40;1.30;;;15.00;94.30;;;;;;5091624;28;20196;-63
2023/01/08 14:29:29;;;;;;;1.77;1.67;;;15.00;94.30;;;;;;5090847;28;20281;-62
2023/01/08 14:32:20;;;;;;;1.73;1.42;;;15.00;94.40;;;;;;5090509;28;20192;-64
2023/01/08 14:35:14;;;;;;;1.40;1.30;;;15.00;94.40;;;;;;5090620;28;20332;-63
2023/01/08 14:38:04;;;;;;;1.92;1.83;;;15.20;94.50;;;;;;5085193;28;20199;-65
2023/01/08 14:41:00;;;;;;;1.67;1.58;;;15.20;94.50;;;;;;5090647;28;20219;-64
2023/01/08 14:43:49;;;;;;;1.85;1.75;;;15.00;94.40;;;;;;5091337;28;20335;-64
2023/01/08 14:46:37;;;;;;;1.90;1.80;;;15.00;94.40;;;;;;5091987;28;20231;-64
2023/01/08 14:49:30;;;;;;;1.63;1.52;;;15.10;94.50;;;;;;5090570;28;20231;-65
2023/01/08 14:52:20;;;;;;;1.88;1.77;;;15.00;94.40;;;;;;5091665;28;20227;-66